Time;durP1;ratioP1;P1;durP2;ratioP2;P2;SDS_P1;SDS_P2;PMS_P1;PMS_P2;Temp;Humidity;BMP_temperature;BMP_pressure;BME280_temperature;BME280_humidity;BME280_pressure;Samples;Min_cycle;Max_cycle;Signal;HPM_P1;HPM_P2
2022/04/27 00:02:15;;;;;;;;;;;3.20;99.90;;;;;;5075854;28;20379;-76
2022/04/27 00:04:41;;;;;;;;;;;3.10;99.90;;;;;;5080016;28;19920;-77
2022/04/27 00:07:07;;;;;;;;;;;3.10;99.90;;;;;;5076635;28;19970;-79
2022/04/27 00:09:33;;;;;;;;;;;3.10;99.90;;;;;;5074872;28;19916;-79
2022/04/27 00:12:01;;;;;;;;;;;3.10;99.90;;;;;;5077708;28;19920;-76
2022/04/27 00:14:26;;;;;;;;;;;3.10;99.90;;;;;;5066871;28;20109;-76
2022/04/27 00:16:52;;;;;;;;;;;3.10;99.90;;;;;;5098748;28;19950;-76
2022/04/27 00:19:19;;;;;;;;;;;3.10;99.90;;;;;;5082751;28;19916;-76
2022/04/27 00:21:45;;;;;;;;;;;3.10;99.90;;;;;;5085217;28;19951;-78
2022/04/27 00:24:10;;;;;;;;;;;3.10;99.90;;;;;;5077523;28;19923;-77
2022/04/27 00:26:36;;;;;;;;;;;3.10;99.90;;;;;;5083426;28;20404;-76
2022/04/27 00:29:01;;;;;;;;;;;3.10;99.90;;;;;;5106058;28;19917;-77
2022/04/27 00:31:28;;;;;;;;;;;3.00;99.90;;;;;;5063861;28;19916;-78
2022/04/27 00:33:54;;;;;;;;;;;3.00;99.90;;;;;;5066265;28;20058;-77
2022/04/27 00:36:21;;;;;;;;;;;2.90;99.90;;;;;;5060453;28;19948;-77
2022/04/27 00:38:46;;;;;;;;;;;2.80;99.90;;;;;;5076892;28;19920;-77
2022/04/27 00:41:12;;;;;;;;;;;2.80;99.90;;;;;;5084864;28;19938;-78
2022/04/27 00:43:39;;;;;;;;;;;2.80;99.90;;;;;;5054971;28;19916;-77
2022/04/27 00:46:04;;;;;;;;;;;2.70;99.90;;;;;;5083311;28;19925;-76
2022/04/27 00:48:30;;;;;;;;;;;2.70;99.90;;;;;;5082507;28;19924;-77
2022/04/27 00:50:56;;;;;;;;;;;2.70;99.90;;;;;;5088290;28;19924;-76
2022/04/27 00:53:23;;;;;;;;;;;2.60;99.90;;;;;;5081936;28;19920;-77
2022/04/27 00:55:49;;;;;;;;;;;2.60;99.90;;;;;;5053311;28;19921;-76
2022/04/27 00:58:15;;;;;;;;;;;2.60;99.90;;;;;;5045644;28;19974;-77
2022/04/27 01:00:41;;;;;;;;;;;2.60;99.90;;;;;;5053078;28;20010;-76
2022/04/27 01:03:06;;;;;;;;;;;2.60;99.90;;;;;;5080239;28;20030;-76
2022/04/27 01:05:32;;;;;;;;;;;2.60;99.90;;;;;;5084761;28;20375;-80
2022/04/27 01:08:00;;;;;;;;;;;2.50;99.90;;;;;;5112642;28;19923;-76
2022/04/27 01:10:27;;;;;;;;;;;2.50;99.90;;;;;;5064703;28;20379;-76
2022/04/27 01:12:53;;;;;;;;;;;2.50;99.90;;;;;;5082106;28;19928;-76
2022/04/27 01:15:29;;;;;;;;;;;2.50;99.90;;;;;;5063097;28;19922;-77
2022/04/27 01:17:57;;;;;;;;;;;2.50;99.90;;;;;;5048560;28;19923;-77
2022/04/27 01:20:22;;;;;;;;;;;2.50;99.90;;;;;;5061691;28;20380;-77
2022/04/27 01:22:50;;;;;;;;;;;2.40;99.90;;;;;;5082547;28;19916;-77
2022/04/27 01:25:16;;;;;;;;;;;2.50;99.90;;;;;;5090599;28;20344;-76
2022/04/27 01:27:42;;;;;;;;;;;2.50;99.90;;;;;;5034701;28;19966;-76
2022/04/27 01:30:08;;;;;;;;;;;2.40;99.90;;;;;;5039147;28;19921;-76
2022/04/27 01:32:34;;;;;;;;;;;2.40;99.90;;;;;;5070536;28;19927;-76
2022/04/27 01:34:59;;;;;;;;;;;2.40;99.90;;;;;;5082167;28;20322;-77
2022/04/27 01:40:11;;;;;;;;;;;2.40;99.90;;;;;;5099573;28;19920;-77
2022/04/27 01:42:37;;;;;;;;;;;2.30;99.90;;;;;;5070444;28;19920;-76
2022/04/27 01:45:04;;;;;;;;;;;2.40;99.90;;;;;;5082882;28;19943;-77
2022/04/27 01:47:29;;;;;;;;;;;2.40;99.90;;;;;;5104952;28;19920;-76
2022/04/27 01:49:55;;;;;;;;;;;2.50;99.90;;;;;;5085629;28;20024;-78
2022/04/27 01:55:06;;;;;;;;;;;2.70;99.90;;;;;;5054491;28;19916;-76
2022/04/27 01:57:33;;;;;;;;;;;2.70;99.90;;;;;;5082305;28;19924;-76
2022/04/27 01:59:59;;;;;;;;;;;2.70;99.90;;;;;;5061121;28;19921;-76
2022/04/27 02:02:25;;;;;;;;;;;2.80;99.90;;;;;;5047584;28;19970;-77
2022/04/27 02:04:52;;;;;;;;;;;2.80;99.90;;;;;;5054733;28;19920;-78
2022/04/27 02:07:19;;;;;;;;;;;2.90;99.90;;;;;;5098416;28;19973;-76
2022/04/27 02:09:45;;;;;;;;;;;2.90;99.90;;;;;;5073074;28;19920;-76
2022/04/27 02:12:12;;;;;;;;;;;3.10;99.90;;;;;;5103692;28;19916;-77
2022/04/27 02:14:40;;;;;;;;;;;3.10;99.90;;;;;;5070355;28;19919;-76
2022/04/27 02:17:06;;;;;;;;;;;3.20;99.90;;;;;;5084107;28;19924;-76
2022/04/27 02:19:32;;;;;;;;;;;3.30;99.90;;;;;;5049944;28;19969;-76
2022/04/27 02:21:58;;;;;;;;;;;3.30;99.90;;;;;;5064581;28;20338;-78
2022/04/27 02:24:26;;;;;;;;;;;3.30;99.90;;;;;;5070824;28;19962;-76
2022/04/27 02:26:52;;;;;;;;;;;3.40;99.90;;;;;;5066514;28;20391;-76
2022/04/27 02:29:18;;;;;;;;;;;3.40;99.90;;;;;;5058006;28;19961;-76
2022/04/27 02:31:46;;;;;;;;;;;3.40;99.90;;;;;;5050559;22;20001;-75
2022/04/27 02:34:12;;;;;;;;;;;3.50;99.90;;;;;;5019088;28;19925;-74
2022/04/27 02:36:40;;;;;;;;;;;3.60;99.90;;;;;;5068057;28;19956;-75
2022/04/27 02:39:05;;;;;;;;;;;3.60;99.90;;;;;;5050763;28;19974;-74
2022/04/27 02:41:32;;;;;;;;;;;3.60;99.90;;;;;;5019707;28;19916;-75
2022/04/27 02:43:59;;;;;;;;;;;3.70;99.90;;;;;;5016927;28;20015;-74
2022/04/27 02:46:24;;;;;;;;;;;3.70;99.90;;;;;;5019698;28;20390;-75
2022/04/27 02:51:54;;;;;;;;;;;3.80;99.90;;;;;;5019764;28;19924;-74
2022/04/27 02:54:40;;;;;;;;;;;3.80;99.90;;;;;;5047798;28;20299;-75
2022/04/27 02:57:06;;;;;;;;;;;3.90;99.90;;;;;;5001193;28;20016;-74
2022/04/27 02:59:33;;;;;;;;;;;3.90;99.90;;;;;;5024307;28;20332;-75
2022/04/27 03:01:59;;;;;;;;;;;3.90;99.90;;;;;;5016960;28;19924;-74
2022/04/27 03:04:26;;;;;;;;;;;3.90;99.90;;;;;;5016422;28;19917;-75
2022/04/27 03:06:52;;;;;;;;;;;3.90;99.90;;;;;;5034092;28;19921;-74
2022/04/27 03:09:18;;;;;;;;;;;3.90;99.90;;;;;;5001987;28;19923;-75
2022/04/27 03:11:44;;;;;;;;;;;4.00;99.90;;;;;;5018789;28;20003;-74
2022/04/27 03:14:22;;;;;;;;;;;4.00;99.90;;;;;;5017402;28;20368;-74
2022/04/27 03:16:47;;;;;;;;;;;4.10;99.90;;;;;;5051536;28;19962;-74
2022/04/27 03:19:13;;;;;;;;;;;4.10;99.90;;;;;;5015679;28;19956;-75
2022/04/27 03:21:40;;;;;;;;;;;4.10;99.90;;;;;;5033071;28;19943;-75
2022/04/27 03:24:06;;;;;;;;;;;4.10;99.90;;;;;;5017388;28;19921;-75
2022/04/27 03:26:32;;;;;;;;;;;4.20;99.90;;;;;;5035634;28;20411;-75
2022/04/27 03:28:57;;;;;;;;;;;4.20;99.90;;;;;;5008784;28;20472;-75
2022/04/27 03:31:24;;;;;;;;;;;4.20;99.90;;;;;;5008538;28;19939;-74
2022/04/27 03:33:50;;;;;;;;;;;4.20;99.90;;;;;;5017784;28;20376;-75
2022/04/27 03:36:15;;;;;;;;;;;4.20;99.90;;;;;;5003799;28;19963;-75
2022/04/27 03:38:43;;;;;;;;;;;4.20;99.90;;;;;;5040761;28;20416;-75
2022/04/27 03:41:09;;;;;;;;;;;4.20;99.90;;;;;;5017546;28;19971;-74
2022/04/27 03:43:37;;;;;;;;;;;4.30;99.90;;;;;;5017905;28;19996;-75
2022/04/27 03:46:03;;;;;;;;;;;4.30;99.90;;;;;;5017525;28;20012;-75
2022/04/27 03:48:31;;;;;;;;;;;4.30;99.90;;;;;;5017054;28;19917;-75
2022/04/27 03:50:57;;;;;;;;;;;4.40;99.90;;;;;;5018527;28;20434;-75
2022/04/27 03:53:23;;;;;;;;;;;4.40;99.90;;;;;;5015579;28;19967;-75
2022/04/27 03:55:51;;;;;;;;;;;4.40;99.90;;;;;;5001340;28;19920;-75
2022/04/27 03:58:16;;;;;;;;;;;4.40;99.90;;;;;;5029363;28;20381;-75
2022/04/27 04:00:43;;;;;;;;;;;4.40;99.90;;;;;;5013201;28;19917;-74
2022/04/27 04:03:17;;;;;;;;;;;4.50;99.90;;;;;;5005539;28;20841;-74
2022/04/27 04:05:44;;;;;;;;;;;4.50;99.90;;;;;;5018236;28;19921;-74
2022/04/27 04:08:10;;;;;;;;;;;4.50;99.90;;;;;;5046474;28;20351;-75
2022/04/27 04:10:35;;;;;;;;;;;4.50;99.90;;;;;;5048141;28;19968;-75
2022/04/27 04:13:02;;;;;;;;;;;4.50;99.90;;;;;;5034171;28;19923;-74
2022/04/27 04:15:56;;;;;;;;;;;4.50;99.90;;;;;;5017211;28;20364;-75
2022/04/27 04:18:51;;;;;;;;;;;4.50;99.90;;;;;;5008832;28;20018;-75
2022/04/27 04:21:35;;;;;;;;;;;4.60;99.90;;;;;;5033231;28;19965;-75
2022/04/27 04:24:07;;;;;;;;;;;4.60;99.90;;;;;;5037793;28;19917;-75
2022/04/27 04:29:25;;;;;;;;;;;4.70;99.90;;;;;;5032529;28;19968;-75
2022/04/27 04:31:51;;;;;;;;;;;4.70;99.90;;;;;;5037949;28;19921;-74
2022/04/27 04:34:36;;;;;;;;;;;4.70;99.90;;;;;;5056041;28;19917;-74
2022/04/27 04:37:01;;;;;;;;;;;4.80;99.90;;;;;;5017363;28;19939;-75
2022/04/27 04:39:28;;;;;;;;;;;4.80;99.90;;;;;;5011679;28;20007;-75
2022/04/27 04:41:54;;;;;;;;;;;4.80;99.90;;;;;;5031605;28;20347;-75
2022/04/27 04:44:19;;;;;;;;;;;4.90;99.90;;;;;;5025675;28;19917;-75
2022/04/27 04:47:05;;;;;;;;;;;4.90;99.90;;;;;;5019306;28;20055;-74
2022/04/27 04:49:49;;;;;;;;;;;5.00;99.90;;;;;;5056058;28;19927;-74
2022/04/27 04:52:34;;;;;;;;;;;5.00;99.90;;;;;;5033021;28;20010;-74
2022/04/27 04:55:26;;;;;;;;;;;5.10;99.90;;;;;;5016912;28;19979;-75
2022/04/27 04:58:10;;;;;;;;;;;5.10;99.90;;;;;;5046697;28;19967;-75
2022/04/27 05:00:48;;;;;;;;;;;5.20;99.90;;;;;;5003127;28;20011;-74
2022/04/27 05:03:25;;;;;;;;;;;5.20;99.90;;;;;;5041786;28;19966;-75
2022/04/27 05:06:09;;;;;;;;;;;5.20;99.90;;;;;;5051185;28;20337;-75
2022/04/27 05:08:58;;;;;;;;;;;5.30;99.90;;;;;;5016455;28;19921;-75
2022/04/27 05:11:43;;;;;;;;;;;5.30;99.90;;;;;;5017498;28;19962;-75
2022/04/27 05:14:28;;;;;;;;;;;5.40;99.90;;;;;;5030840;28;19923;-75
2022/04/27 05:17:04;;;;;;;;;;;5.40;99.90;;;;;;5006890;28;19979;-75
2022/04/27 05:19:42;;;;;;;;;;;5.50;99.90;;;;;;5032205;28;19917;-75
2022/04/27 05:22:40;;;;;;;;;;;5.60;99.90;;;;;;4983908;28;19996;-75
2022/04/27 05:25:34;;;;;;;;;;;5.70;99.90;;;;;;5013214;28;19928;-75
2022/04/27 05:28:18;;;;;;;;;;;5.70;99.90;;;;;;5032589;28;19927;-75
2022/04/27 05:34:25;;;;;;;;;;;5.90;99.90;;;;;;5033196;28;19920;-75
2022/04/27 05:36:58;;;;;;;;;;;6.00;99.90;;;;;;5021899;28;19924;-74
2022/04/27 05:39:54;;;;;;;;;;;6.00;99.90;;;;;;5015143;28;19928;-75
2022/04/27 05:42:28;;;;;;;;;;;6.10;99.90;;;;;;5011388;28;19916;-75
2022/04/27 05:45:14;;;;;;;;;;;6.20;99.90;;;;;;5052944;28;20407;-75
2022/04/27 05:47:54;;;;;;;;;;;6.30;99.90;;;;;;5016625;28;19917;-74
2022/04/27 05:50:40;;;;;;;;;;;6.30;99.90;;;;;;5023502;28;20356;-75
2022/04/27 05:53:16;;;;;;;;;;;6.40;99.90;;;;;;5028938;28;19920;-75
2022/04/27 05:55:48;;;;;;;;;;;6.40;99.90;;;;;;5006826;28;19990;-75
2022/04/27 05:58:43;;;;;;;;;;;6.50;99.90;;;;;;5054426;28;19917;-76
2022/04/27 06:01:38;;;;;;;;;;;6.60;99.90;;;;;;5028675;28;19921;-75
2022/04/27 06:04:08;;;;;;;;;;;6.70;99.90;;;;;;5010865;28;19932;-76
2022/04/27 06:06:40;;;;;;;;;;;6.70;99.90;;;;;;5053034;28;20008;-75
2022/04/27 06:09:09;;;;;;;;;;;6.80;99.90;;;;;;5011920;28;19925;-75
2022/04/27 06:11:47;;;;;;;;;;;6.80;99.90;;;;;;5033667;28;19920;-76
2022/04/27 06:14:45;;;;;;;;;;;6.90;99.90;;;;;;5054982;28;19963;-75
2022/04/27 06:17:31;;;;;;;;;;;7.00;99.90;;;;;;5028129;28;19917;-78
2022/04/27 06:19:57;;;;;;;;;;;7.10;99.90;;;;;;5025574;28;19916;-76
2022/04/27 06:22:22;;;;;;;;;;;7.20;99.90;;;;;;5000946;28;19923;-75
2022/04/27 06:24:50;;;;;;;;;;;7.30;99.90;;;;;;5019723;28;20014;-76
2022/04/27 06:27:36;;;;;;;;;;;7.40;99.90;;;;;;5026948;28;19964;-76
2022/04/27 06:30:02;;;;;;;;;;;7.50;99.90;;;;;;5014275;28;19917;-76
2022/04/27 06:32:29;;;;;;;;;;;7.60;99.90;;;;;;5013670;28;19925;-75
2022/04/27 06:34:59;;;;;;;;;;;7.70;99.90;;;;;;5011392;28;20012;-76
2022/04/27 06:37:24;;;;;;;;;;;7.70;99.90;;;;;;5054636;28;20003;-76
2022/04/27 06:39:51;;;;;;;;;;;7.80;99.90;;;;;;5015442;28;19963;-76
2022/04/27 06:42:18;;;;;;;;;;;7.90;99.90;;;;;;5017589;28;20380;-77
2022/04/27 06:45:02;;;;;;;;;;;8.00;99.90;;;;;;5026606;28;19921;-76
2022/04/27 06:47:47;;;;;;;;;;;8.10;99.90;;;;;;5059345;28;19924;-76
2022/04/27 06:50:50;;;;;;;;;;;8.10;99.90;;;;;;5050474;28;20005;-77
2022/04/27 06:53:36;;;;;;;;;;;8.20;99.90;;;;;;5018046;28;19917;-76
2022/04/27 06:56:21;;;;;;;;;;;8.30;99.90;;;;;;5052763;28;19967;-76
2022/04/27 06:59:07;;;;;;;;;;;8.40;99.90;;;;;;5007773;28;19967;-77
2022/04/27 07:01:36;;;;;;;;;;;8.50;99.90;;;;;;5018850;28;19917;-76
2022/04/27 07:04:09;;;;;;;;;;;8.50;99.90;;;;;;5039212;28;19963;-76
2022/04/27 07:06:35;;;;;;;;;;;8.60;99.90;;;;;;4995752;28;20007;-77
2022/04/27 07:09:00;;;;;;;;;;;8.80;99.90;;;;;;5026985;28;20221;-77
2022/04/27 07:11:27;;;;;;;;;;;8.80;99.90;;;;;;5028316;28;20424;-77
2022/04/27 07:13:54;;;;;;;;;;;8.90;99.90;;;;;;5011122;28;19982;-76
2022/04/27 07:16:20;;;;;;;;;;;9.00;99.90;;;;;;5015959;28;20372;-76
2022/04/27 07:18:46;;;;;;;;;;;9.10;99.90;;;;;;5048451;28;19917;-77
2022/04/27 07:21:12;;;;;;;;;;;9.10;99.90;;;;;;5045310;28;19917;-76
2022/04/27 07:23:38;;;;;;;;;;;9.20;99.90;;;;;;5029657;28;20292;-75
2022/04/27 07:26:05;;;;;;;;;;;9.30;99.90;;;;;;5042598;28;19921;-75
2022/04/27 07:28:32;;;;;;;;;;;9.40;99.90;;;;;;5016604;28;19925;-77
2022/04/27 07:30:58;;;;;;;;;;;9.60;99.90;;;;;;5027671;28;20292;-75
2022/04/27 07:33:24;;;;;;;;;;;9.70;99.90;;;;;;5032046;28;19932;-84
2022/04/27 07:35:49;;;;;;;;;;;9.70;99.90;;;;;;5020561;28;19921;-84
2022/04/27 07:38:15;;;;;;;;;;;9.90;99.90;;;;;;5025427;28;20454;-75
2022/04/27 07:40:40;;;;;;;;;;;10.00;99.90;;;;;;5024363;28;20015;-75
2022/04/27 07:43:06;;;;;;;;;;;10.10;99.90;;;;;;5058573;28;20295;-75
2022/04/27 07:45:33;;;;;;;;;;;10.10;99.90;;;;;;5043458;28;19966;-75
2022/04/27 07:47:58;;;;;;;;;;;10.10;99.90;;;;;;5023643;28;19968;-75
2022/04/27 07:50:24;;;;;;;;;;;10.10;99.90;;;;;;5053636;28;20266;-75
2022/04/27 07:52:51;;;;;;;;;;;10.20;99.90;;;;;;5058097;28;20381;-75
2022/04/27 07:55:16;;;;;;;;;;;10.20;99.90;;;;;;5022184;28;20403;-75
2022/04/27 07:57:42;;;;;;;;;;;10.30;99.90;;;;;;5023438;28;19916;-75
2022/04/27 08:00:09;;;;;;;;;;;10.30;99.90;;;;;;5047159;28;20005;-75
2022/04/27 08:02:38;;;;;;;;;;;10.40;99.90;;;;;;5007527;28;20384;-75
2022/04/27 08:05:04;;;;;;;;;;;10.50;99.90;;;;;;5012419;28;19927;-75
2022/04/27 08:07:34;;;;;;;;;;;10.50;99.90;;;;;;5022164;28;19916;-75
2022/04/27 08:10:04;;;;;;;;;;;10.60;99.90;;;;;;5012678;28;20039;-75
2022/04/27 08:12:31;;;;;;;;;;;10.70;99.90;;;;;;5006443;28;19935;-75
2022/04/27 08:14:56;;;;;;;;;;;10.70;99.90;;;;;;5006998;28;19920;-76
2022/04/27 08:17:22;;;;;;;;;;;10.90;99.90;;;;;;5023703;28;19921;-75
2022/04/27 08:21:13;;;;;;;;;;;11.00;99.90;;;;;;5021655;28;19920;-75
2022/04/27 08:22:34;;;;;;;;;;;11.00;99.90;;;;;;5031961;28;19924;-75
2022/04/27 08:25:00;;;;;;;;;;;11.10;99.90;;;;;;5024473;28;19924;-75
2022/04/27 08:27:26;;;;;;;;;;;11.30;99.90;;;;;;5009568;28;19923;-75
2022/04/27 08:29:51;;;;;;;;;;;11.30;99.90;;;;;;5022315;28;20538;-76
2022/04/27 08:32:17;;;;;;;;;;;11.50;99.90;;;;;;5102811;22;20418;-78
2022/04/27 08:34:42;;;;;;;;;;;11.50;99.90;;;;;;5085726;28;19920;-80
2022/04/27 08:37:09;;;;;;;;;;;11.60;99.90;;;;;;5080552;28;19931;-78
2022/04/27 08:39:35;;;;;;;;;;;11.60;99.90;;;;;;5106102;28;19956;-80
2022/04/27 08:42:02;;;;;;;;;;;11.60;99.90;;;;;;5081309;28;19923;-79
2022/04/27 08:44:28;;;;;;;;;;;11.70;99.90;;;;;;5074275;28;19924;-78
2022/04/27 08:46:54;;;;;;;;;;;11.80;99.90;;;;;;5071666;28;19924;-82
2022/04/27 08:49:19;;;;;;;;;;;11.70;97.40;;;;;;5070381;28;19939;-80
2022/04/27 08:51:45;;;;;;;;;;;11.70;97.50;;;;;;5076903;28;19923;-77
2022/04/27 08:54:13;;;;;;;;;;;11.70;98.70;;;;;;5054136;28;19978;-77
2022/04/27 08:56:39;;;;;;;;;;;11.90;98.00;;;;;;5075037;28;19924;-80
2022/04/27 08:59:05;;;;;;;;;;;12.00;98.50;;;;;;5090299;28;20406;-76
2022/04/27 09:01:31;;;;;;;;;;;12.20;97.50;;;;;;5069225;28;20589;-77
2022/04/27 09:04:10;;;;;;;;;;;12.10;92.90;;;;;;5067246;28;19916;-77
2022/04/27 09:06:37;;;;;;;;;;;12.10;95.00;;;;;;5077197;28;19958;-78
2022/04/27 09:09:02;;;;;;;;;;;12.20;96.50;;;;;;5098342;28;19916;-80
2022/04/27 09:11:32;;;;;;;;;;;12.30;97.40;;;;;;5077904;28;19921;-77
2022/04/27 09:13:58;;;;;;;;;;;12.40;98.00;;;;;;5075499;28;20220;-76
2022/04/27 09:16:25;;;;;;;;;;;12.40;98.30;;;;;;5079630;28;19916;-78
2022/04/27 09:21:58;;;;;;;;;;;12.60;98.80;;;;;;5094676;28;19971;-76
2022/04/27 09:24:25;;;;;;;;;;;12.60;99.10;;;;;;5070618;28;19970;-79
2022/04/27 09:27:12;;;;;;;;;;;12.60;98.50;;;;;;5083465;28;19921;-78
2022/04/27 09:29:38;;;;;;;;;;;12.70;98.70;;;;;;5042493;28;19920;-78
2022/04/27 09:32:06;;;;;;;;;;;12.80;98.80;;;;;;5075543;28;20306;-76
2022/04/27 09:34:43;;;;;;;;;;;13.00;98.60;;;;;;5070370;28;19916;-76
2022/04/27 09:37:12;;;;;;;;;;;13.00;97.30;;;;;;5075195;28;19956;-76
2022/04/27 09:39:38;;;;;;;;;;;13.10;97.30;;;;;;5089595;28;19955;-76
2022/04/27 09:42:06;;;;;;;;;;;13.30;97.00;;;;;;5067023;28;19917;-77
2022/04/27 09:44:33;;;;;;;;;;;13.50;96.70;;;;;;5068804;28;19927;-77
2022/04/27 09:47:00;;;;;;;;;;;13.60;95.80;;;;;;5065522;28;20007;-79
2022/04/27 09:49:27;;;;;;;;;;;13.80;94.90;;;;;;5092110;28;20371;-76
2022/04/27 09:51:54;;;;;;;;;;;13.90;95.20;;;;;;5110549;28;19942;-77
2022/04/27 09:54:20;;;;;;;;;;;13.90;95.30;;;;;;5045399;28;20342;-76
2022/04/27 09:56:48;;;;;;;;;;;13.90;93.50;;;;;;5075285;28;20371;-77
2022/04/27 09:59:16;;;;;;;;;;;13.90;94.10;;;;;;5075085;28;20351;-79
2022/04/27 10:01:42;;;;;;;;;;;14.00;94.20;;;;;;5090954;28;20011;-77
2022/04/27 10:04:10;;;;;;;;;;;14.00;94.50;;;;;;5074077;28;19967;-77
2022/04/27 10:06:36;;;;;;;;;;;14.00;94.60;;;;;;5079556;28;19928;-77
2022/04/27 10:09:04;;;;;;;;;;;13.90;94.60;;;;;;5072444;28;19966;-78
2022/04/27 10:11:34;;;;;;;;;;;13.90;94.50;;;;;;5074956;28;19920;-76
2022/04/27 10:14:00;;;;;;;;;;;14.00;94.50;;;;;;5082563;28;19985;-77
2022/04/27 10:16:27;;;;;;;;;;;14.70;94.20;;;;;;5070138;28;19916;-77
2022/04/27 10:18:53;;;;;;;;;;;15.00;92.50;;;;;;5076667;28;20043;-76
2022/04/27 10:21:38;;;;;;;;;;;14.90;92.40;;;;;;5063749;28;19956;-77
2022/04/27 10:24:05;;;;;;;;;;;14.80;90.80;;;;;;5091908;28;19916;-80
2022/04/27 10:26:30;;;;;;;;;;;14.60;91.40;;;;;;5112082;28;19921;-76
2022/04/27 10:28:57;;;;;;;;;;;14.60;92.00;;;;;;5076532;28;20035;-78
2022/04/27 10:31:50;;;;;;;;;;;14.40;92.10;;;;;;5072988;28;19952;-77
2022/04/27 10:34:22;;;;;;;;;;;14.40;92.30;;;;;;5109907;28;19970;-81
2022/04/27 10:36:48;;;;;;;;;;;14.30;92.50;;;;;;5073422;28;19920;-76
2022/04/27 10:39:24;;;;;;;;;;;14.40;92.40;;;;;;5108628;28;19942;-79
2022/04/27 10:41:56;;;;;;;;;;;14.20;92.00;;;;;;5078792;28;19950;-77
2022/04/27 10:44:42;;;;;;;;;;;14.30;92.10;;;;;;5075575;28;19932;-78
2022/04/27 10:47:14;;;;;;;;;;;14.20;92.00;;;;;;5074636;28;19920;-78
2022/04/27 10:49:41;;;;;;;;;;;14.30;92.00;;;;;;5053586;28;19960;-77
2022/04/27 10:52:07;;;;;;;;;;;14.30;91.90;;;;;;5066612;28;19917;-79
2022/04/27 10:54:33;;;;;;;;;;;14.30;91.30;;;;;;5104853;28;19920;-80
2022/04/27 10:57:18;;;;;;;;;;;14.20;91.40;;;;;;5073942;28;19917;-80
2022/04/27 10:59:44;;;;;;;;;;;14.20;91.00;;;;;;5074209;28;20287;-77
2022/04/27 11:02:25;;;;;;;;;;;14.20;91.40;;;;;;5090510;28;19921;-78
2022/04/27 11:04:52;;;;;;;;;;;14.20;91.70;;;;;;5104864;28;19924;-78
2022/04/27 11:07:29;;;;;;;;;;;14.30;91.40;;;;;;5068816;28;19921;-80
2022/04/27 11:10:11;;;;;;;;;;;14.20;91.10;;;;;;5091450;28;19917;-78
2022/04/27 11:12:37;;;;;;;;;;;14.30;91.50;;;;;;5055147;28;20310;-77
2022/04/27 11:15:03;;;;;;;;;;;14.40;91.60;;;;;;5057017;28;20434;-79
2022/04/27 11:17:29;;;;;;;;;;;14.40;91.40;;;;;;5071003;28;19916;-80
2022/04/27 11:19:56;;;;;;;;;;;14.40;91.50;;;;;;5078083;28;19917;-78
2022/04/27 11:22:22;;;;;;;;;;;14.50;91.80;;;;;;5088323;28;19966;-77
2022/04/27 11:24:49;;;;;;;;;;;14.60;92.10;;;;;;5083823;28;19924;-80
2022/04/27 11:27:20;;;;;;;;;;;14.50;91.20;;;;;;5047098;28;19924;-79
2022/04/27 11:29:46;;;;;;;;;;;14.40;91.20;;;;;;5086447;28;20333;-78
2022/04/27 11:32:12;;;;;;;;;;;14.30;90.90;;;;;;5099300;28;19938;-80
2022/04/27 11:34:37;;;;;;;;;;;14.20;90.70;;;;;;5086920;28;19920;-78
2022/04/27 11:37:15;;;;;;;;;;;14.30;91.00;;;;;;5056140;28;20296;-77
2022/04/27 11:39:41;;;;;;;;;;;14.40;91.20;;;;;;5056190;28;19962;-79
2022/04/27 11:42:06;;;;;;;;;;;14.50;91.50;;;;;;5081865;28;19917;-77
2022/04/27 11:44:34;;;;;;;;;;;14.70;91.70;;;;;;5068006;28;19960;-81
2022/04/27 11:47:00;;;;;;;;;;;14.70;91.80;;;;;;5071769;28;19924;-78
2022/04/27 11:49:25;;;;;;;;;;;14.80;91.80;;;;;;5072705;28;19920;-78
2022/04/27 11:51:51;;;;;;;;;;;14.70;91.30;;;;;;5068108;28;20399;-78
2022/04/27 11:54:26;;;;;;;;;;;14.60;91.10;;;;;;5056291;28;19916;-78
2022/04/27 11:56:54;;;;;;;;;;;14.60;91.30;;;;;;5056118;28;20071;-77
2022/04/27 11:59:19;;;;;;;;;;;14.80;91.40;;;;;;5066120;28;20398;-79
2022/04/27 12:01:50;;;;;;;;;;;14.90;91.40;;;;;;5072168;28;19923;-79
2022/04/27 12:04:16;;;;;;;;;;;14.90;90.90;;;;;;5065231;28;19916;-79
2022/04/27 12:06:41;;;;;;;;;;;14.70;90.40;;;;;;5095626;27;19942;-80
2022/04/27 12:09:14;;;;;;;;;;;14.80;90.30;;;;;;5054910;28;19924;-79
2022/04/27 12:11:41;;;;;;;;;;;14.70;90.70;;;;;;5073859;28;20371;-78
2022/04/27 12:14:07;;;;;;;;;;;14.90;91.00;;;;;;5071306;28;19924;-76
2022/04/27 12:16:33;;;;;;;;;;;15.00;91.00;;;;;;5059645;28;19917;-77
2022/04/27 12:18:59;;;;;;;;;;;15.20;91.10;;;;;;5073260;28;19963;-76
2022/04/27 12:21:24;;;;;;;;;;;15.30;91.20;;;;;;5075124;28;19959;-77
2022/04/27 12:23:50;;;;;;;;;;;15.40;91.30;;;;;;5066808;28;19924;-78
2022/04/27 12:26:16;;;;;;;;;;;15.40;91.40;;;;;;5072625;28;19998;-78
2022/04/27 12:28:46;;;;;;;;;;;15.40;91.50;;;;;;5100827;28;20035;-78
2022/04/27 12:31:11;;;;;;;;;;;15.50;91.60;;;;;;5052845;28;19959;-82
2022/04/27 12:33:38;;;;;;;;;;;15.50;91.60;;;;;;5107238;28;20323;-77
2022/04/27 12:38:55;;;;;;;;;;;15.50;91.50;;;;;;5073342;28;19989;-78
2022/04/27 12:41:28;;;;;;;;;;;15.40;91.30;;;;;;5055363;28;19923;-77
2022/04/27 12:44:01;;;;;;;;;;;15.20;91.20;;;;;;5074139;28;19967;-82
2022/04/27 12:46:32;;;;;;;;;;;15.20;91.40;;;;;;5062576;28;19925;-82
2022/04/27 12:49:01;;;;;;;;;;;15.10;91.60;;;;;;5049443;28;19924;-79
2022/04/27 12:51:28;;;;;;;;;;;15.00;91.70;;;;;;5105736;28;19926;-77
2022/04/27 12:53:54;;;;;;;;;;;14.90;91.30;;;;;;5102409;28;19916;-83
2022/04/27 12:56:22;;;;;;;;;;;14.80;91.70;;;;;;5053346;28;19927;-85
2022/04/27 12:59:02;;;;;;;;;;;14.80;92.00;;;;;;5054220;28;19970;-78
2022/04/27 13:01:28;;;;;;;;;;;14.70;92.10;;;;;;5062932;28;19924;-77
2022/04/27 13:03:54;;;;;;;;;;;14.90;92.30;;;;;;5084674;28;19916;-80
2022/04/27 13:06:19;;;;;;;;;;;15.10;92.20;;;;;;5051631;28;19924;-81
2022/04/27 13:08:45;;;;;;;;;;;15.20;92.20;;;;;;5051094;28;20394;-80
2022/04/27 13:13:55;;;;;;;;;;;15.40;92.20;;;;;;5099587;28;20377;-84
2022/04/27 13:16:24;;;;;;;;;;;15.30;92.00;;;;;;5089592;28;20341;-78
2022/04/27 13:18:50;;;;;;;;;;;15.10;90.70;;;;;;5053743;28;20342;-76
2022/04/27 13:21:16;;;;;;;;;;;15.00;91.30;;;;;;5076612;28;19920;-77
2022/04/27 13:23:42;;;;;;;;;;;14.90;90.70;;;;;;5076787;28;20272;-80
2022/04/27 13:26:08;;;;;;;;;;;14.80;91.20;;;;;;5078720;28;19932;-78
2022/04/27 13:28:35;;;;;;;;;;;14.60;91.60;;;;;;5061014;28;19973;-78
2022/04/27 13:31:01;;;;;;;;;;;14.60;92.00;;;;;;5071955;28;19969;-78
2022/04/27 13:33:29;;;;;;;;;;;14.50;92.10;;;;;;5091320;28;19972;-77
2022/04/27 13:35:55;;;;;;;;;;;14.60;92.20;;;;;;5103608;28;19924;-77
2022/04/27 13:38:20;;;;;;;;;;;14.60;92.30;;;;;;5093070;28;19966;-77
2022/04/27 13:40:47;;;;;;;;;;;14.60;92.40;;;;;;5086147;28;20201;-77
2022/04/27 13:43:13;;;;;;;;;;;14.50;92.40;;;;;;5098065;28;20383;-78
2022/04/27 13:45:39;;;;;;;;;;;14.50;92.30;;;;;;5091470;28;19973;-78
2022/04/27 13:48:04;;;;;;;;;;;14.40;92.50;;;;;;5085995;28;20399;-80
2022/04/27 13:50:31;;;;;;;;;;;14.40;92.70;;;;;;5086011;28;19921;-79
2022/04/27 13:52:57;;;;;;;;;;;14.40;92.80;;;;;;5092324;28;19970;-79
2022/04/27 13:55:23;;;;;;;;;;;14.40;92.70;;;;;;5084652;28;19916;-77
2022/04/27 13:57:48;;;;;;;;;;;14.30;92.70;;;;;;5062476;28;20368;-83
2022/04/27 14:00:15;;;;;;;;;;;14.30;92.60;;;;;;5108570;28;19996;-80
2022/04/27 14:02:42;;;;;;;;;;;14.30;92.00;;;;;;5075503;28;19917;-77
2022/04/27 14:05:09;;;;;;;;;;;14.30;91.50;;;;;;5091413;28;19924;-77
2022/04/27 14:07:36;;;;;;;;;;;14.30;91.90;;;;;;5074739;28;19943;-78
2022/04/27 14:10:02;;;;;;;;;;;14.30;90.70;;;;;;5079694;28;19994;-78
2022/04/27 14:15:18;;;;;;;;;;;14.30;91.10;;;;;;5075657;28;19923;-78
2022/04/27 14:20:28;;;;;;;;;;;14.40;90.40;;;;;;5103293;28;19960;-81
2022/04/27 14:22:56;;;;;;;;;;;14.30;90.90;;;;;;5064514;28;19927;-79
2022/04/27 14:25:21;;;;;;;;;;;14.40;91.20;;;;;;5057120;28;20003;-78
2022/04/27 14:27:47;;;;;;;;;;;14.30;91.80;;;;;;5108179;28;19960;-80
2022/04/27 14:30:13;;;;;;;;;;;14.20;91.80;;;;;;5058350;28;20350;-82
2022/04/27 14:32:39;;;;;;;;;;;14.20;92.00;;;;;;5052889;28;19947;-74
2022/04/27 14:35:05;;;;;;;;;;;14.10;92.20;;;;;;5084618;28;19962;-75
2022/04/27 14:37:30;;;;;;;;;;;14.10;92.30;;;;;;5054886;28;19916;-76
2022/04/27 14:39:57;;;;;;;;;;;14.10;92.40;;;;;;5069431;28;19969;-75
2022/04/27 14:42:23;;;;;;;;;;;14.20;92.50;;;;;;5081771;28;19928;-76
2022/04/27 14:44:48;;;;;;;;;;;14.20;92.70;;;;;;5053389;28;19923;-75
2022/04/27 14:47:14;;;;;;;;;;;14.00;92.70;;;;;;5059455;28;19917;-75
2022/04/27 14:49:40;;;;;;;;;;;14.00;92.80;;;;;;5057292;28;19925;-74
2022/04/27 14:52:07;;;;;;;;;;;13.90;93.00;;;;;;5069478;28;20331;-74
2022/04/27 14:54:32;;;;;;;;;;;13.90;93.20;;;;;;5069318;28;20276;-75
2022/04/27 14:56:59;;;;;;;;;;;13.80;92.60;;;;;;5072753;28;19979;-75
2022/04/27 14:59:25;;;;;;;;;;;13.80;92.80;;;;;;5101416;28;19920;-75
2022/04/27 15:01:52;;;;;;;;;;;13.60;92.90;;;;;;5087692;28;19923;-74
2022/04/27 15:04:17;;;;;;;;;;;13.60;93.00;;;;;;5071289;28;19982;-75
2022/04/27 15:06:43;;;;;;;;;;;13.60;93.10;;;;;;5099883;28;19928;-75